Arden, Nevada
Current Conditions -  °F | °C
As of 3:56 AM on Tuesday 27 Jan 2015 (Local Time) from KLAS Reporting Station
Overcast Overcast  
Wind Chill: 52°   Ceiling: 2000
Heat Index: 52°   Visibility: 10mi
Dew Point: 47°   Wind: 5mph
Humidity: 83%   Direction: 180°S
Pressure: 30.17"   Gusts: NA
Location:  36.079°N, 115.211°W
Report Text: KLAS 271156Z 18004KT 10SM FEW002 FEW012 OVC020 11/08 A3017 RMK AO2 SLP208 MTNS OBSCURED DSNT SE-SW-NW 60014 70020 T01110083 10133 20106 50003
Loading
Personal Weather Stations






























Interactive Weather Map New forecast layout! Learn more

10-Day Weather Forecast

Advertisements
Track Severe Weather on mobile